Home > Products > Valid Products > TAF

000
FTUS46 KMFR 070753 AAA
TAFOTH
TAF AMD
KOTH 070753Z 0708/0806 20004KT P6SM OVC018
     FM071000 23004KT 3SM BR OVC009
     FM071600 31010KT P6SM OVC015
     FM080400 17005KT P6SM OVC005=



000
FTUS46 KMFR 070529
TAFRBG
TAF
KRBG 070529Z 0706/0806 36008KT P6SM FEW080=



000
FTUS46 KMFR 070529
TAFOTH
TAF
KOTH 070529Z 0706/0806 18006KT P6SM OVC020
     FM070700 23004KT 3SM BR OVC009
     FM071600 31010KT P6SM OVC015
     FM080400 17005KT P6SM OVC005=



000
FTUS46 KMFR 070529
TAFLMT
TAF
KLMT 070529Z 0706/0806 29009KT P6SM VCTS SCT070CB BKN100
     FM070800 29006KT P6SM SCT070 BKN100
     FM072100 33010KT P6SM VCTS SCT080CB BKN200=



000
FTUS46 KMFR 070529
TAFMFR
TAF
KMFR 070529Z 0706/0806 29007KT P6SM FEW080 SCT250
     FM072200 32009G17KT P6SM VCSH SCT080 BKN120=



000
FTUS46 KMFR 070439 AAA
TAFLMT
TAF AMD
KLMT 070439Z 0705/0724 32009KT P6SM VCTS FEW070CB BKN150
     FM070600 29008KT P6SM VCSH SCT070 BKN120
     FM071800 30005KT P6SM SCT100 BKN200
     FM072100 33010KT P6SM VCTS SCT080CB BKN200=



000
FTUS46 KMFR 070439 AAA
TAFLMT
TAF AMD
KLMT 070439Z 0705/0724 32009KT P6SM VCTS FEW070CB BKN150
     FM070600 29008KT P6SM VCSH SCT070 BKN120
     FM071800 30005KT P6SM SCT100 BKN200
     FM072100 33010KT P6SM VCTS SCT080CB BKN200=



000
FTUS46 KMFR 070233 AAB
TAFOTH
TAF AMD
KOTH 070233Z 0703/0724 25010KT P6SM OVC018
     FM071000 23004KT P6SM OVC009
     FM071600 31010KT P6SM BKN012=



000
FTUS46 KMFR 070121 AAA
TAFOTH
TAF AMD
KOTH 070121Z 0701/0724 25010KT P6SM OVC018
     FM071000 23004KT P6SM OVC009
     FM071800 31010KT P6SM BKN012=



000
FTUS46 KMFR 070015 AAA
TAFMFR
TAF AMD
KMFR 070015Z 0700/0724 32012G17KT P6SM SCT070 BKN250
     FM070400 VRB03KT P6SM SCT250
     FM072200 32006KT P6SM VCSH SCT080 BKN200=



000
FTUS46 KMFR 070015 AAA
TAFMFR
TAF AMD
KMFR 070015Z 0700/0724 32012G17KT P6SM SCT070 BKN250
     FM070400 VRB03KT P6SM SCT250
     FM072200 32006KT P6SM VCSH SCT080 BKN200=



000
FTUS46 KMFR 062326
TAFLMT
TAF
KLMT 062326Z 0700/0724 32009KT P6SM BKN200
     FM070500 VRB03KT P6SM BKN200
     FM071800 30005KT P6SM SCT100 BKN200
     FM072100 33010KT P6SM VCTS SCT080CB BKN200=



000
FTUS46 KMFR 062326
TAFOTH
TAF
KOTH 062326Z 0700/0724 25010KT P6SM OVC012
     FM070200 23004KT P6SM OVC007
     FM071800 31010KT P6SM BKN012=



000
FTUS46 KMFR 062326
TAFRBG
TAF
KRBG 062326Z 0700/0724 36008KT P6SM BKN250
     FM070300 VRB03KT P6SM SCT250
     FM072200 36008KT P6SM FEW100 SCT250=



000
FTUS46 KMFR 062326
TAFMFR
TAF
KMFR 062326Z 0700/0724 32008KT P6SM SCT070 BKN250
     FM070400 VRB03KT P6SM SCT250
     FM072200 32006KT P6SM VCSH SCT080 BKN200=



000
FTUS46 KMFR 062254 AAA
TAFRBG
TAF AMD
KRBG 062254Z 0623/0718 36010G18KT P6SM SCT250
     FM070300 VRB03KT P6SM SCT250=



000
FTUS46 KMFR 062254 AAA
TAFRBG
TAF AMD
KRBG 062254Z 0623/0718 36010G18KT P6SM SCT250
     FM070300 VRB03KT P6SM SCT250=



000
FTUS46 KMFR 062249 AAB
TAFOTH
TAF AMD
KOTH 062249Z 0623/0718 25010KT P6SM OVC014
     FM070200 VRB03KT P6SM OVC007=



000
FTUS46 KMFR 061824 AAA
TAFOTH
TAF AMD
KOTH 061824Z 0618/0718 VRB03KT P6SM BKN008
     FM062100 25010KT P6SM SCT010
     FM070000 25010KT P6SM OVC009
     FM070200 VRB03KT P6SM OVC007=



000
FTUS46 KMFR 061725
TAFRBG
TAF
KRBG 061725Z 0618/0718 VRB03KT P6SM SCT250
     FM062100 36008KT P6SM BKN250
     FM070300 VRB03KT P6SM SCT250=



000
FTUS46 KMFR 061725
TAFOTH
TAF
KOTH 061725Z 0618/0718 VRB03KT P6SM SCT008
     FM062100 25010KT P6SM SKC
     FM070000 25010KT P6SM OVC009
     FM070200 VRB03KT P6SM OVC007=



000
FTUS46 KMFR 061725
TAFMFR
TAF
KMFR 061725Z 0618/0718 VRB03KT P6SM SCT250
     FM062200 32009KT P6SM SCT070 BKN250
     FM070400 VRB03KT P6SM SCT250=



000
FTUS46 KMFR 061725
TAFLMT
TAF
KLMT 061725Z 0618/0718 VRB03KT P6SM BKN200
     FM062300 32009KT P6SM VCTS SCT060CB BKN200
     FM070500 VRB03KT P6SM BKN200=



000
FTUS46 KMFR 061725
TAFLMT
TAF
KLMT 061725Z 0618/0718 VRB03KT P6SM BKN200
     FM062300 32009KT P6SM VCTS SCT060CB BKN200
     FM070500 VRB03KT P6SM BKN200=



000
FTUS46 KMFR 061131
TAFRBG
TAF
KRBG 061131Z 0612/0712 00000KT P6SM SCT250
     FM062100 35007KT P6SM BKN250=



000
FTUS46 KMFR 061131
TAFOTH
TAF
KOTH 061131Z 0612/0712 VRB03KT P6SM OVC006
     FM061800 24008KT P6SM OVC012
     FM062100 23008KT P6SM FEW014 BKN080
     FM070400 25003KT P6SM OVC005=



000
FTUS46 KMFR 061131
TAFLMT
TAF
KLMT 061131Z 0612/0712 13007KT P6SM SCT080 BKN200
     FM062100 34013G18KT P6SM VCTS SCT070CB BKN200
     FM070400 13006KT P6SM SCT080 BKN200=



000
FTUS46 KMFR 061131
TAFMFR
TAF
KMFR 061131Z 0612/0712 18006KT P6SM BKN250
     FM062100 31012KT P6SM SCT070 BKN250
     FM070400 VRB03KT P6SM BKN250=



000
FTUS46 KMFR 061131
TAFMFR
TAF
KMFR 061131Z 0612/0712 18006KT P6SM BKN250
     FM062100 31012KT P6SM SCT070 BKN250
     FM070400 VRB03KT P6SM BKN250=



000
FTUS46 KMFR 061131
TAFLMT
TAF
KLMT 061131Z 0612/0712 13007KT P6SM SCT080 BKN200
     FM062100 34013G18KT P6SM VCTS SCT070CB BKN200
     FM070400 13006KT P6SM SCT080 BKN200=



000
FTUS46 KMFR 061131
TAFRBG
TAF
KRBG 061131Z 0612/0712 00000KT P6SM SCT250
     FM062100 35007KT P6SM BKN250=



000
FTUS46 KMFR 061131
TAFOTH
TAF
KOTH 061131Z 0612/0712 VRB03KT P6SM OVC006
     FM061800 24008KT P6SM OVC012
     FM062100 23008KT P6SM FEW014 BKN080
     FM070400 25003KT P6SM OVC005=



000
FTUS46 KMFR 060542
TAFMFR
TAF
KMFR 060542Z 0606/0706 18006KT P6SM BKN250
     FM062100 31012KT P6SM FEW070 SCT250=



000
FTUS46 KMFR 060542
TAFOTH
TAF
KOTH 060542Z 0606/0706 21005KT 3SM BR OVC004
     FM060800 VRB03KT 3SM BR OVC003
     FM061800 28008KT P6SM OVC012
     FM062100 28010KT P6SM FEW014 BKN150
     FM070400 25003KT P6SM OVC005=



000
FTUS46 KMFR 060542
TAFRBG
TAF
KRBG 060542Z 0606/0706 00000KT P6SM SCT250
     FM062100 35007KT P6SM BKN250=



000
FTUS46 KMFR 060542
TAFLMT
TAF
KLMT 060542Z 0606/0706 13007KT P6SM SCT080 BKN250
     FM062100 34013G18KT P6SM VCTS SCT070CB BKN120
     FM070400 13006KT P6SM SCT080 BKN150=



000
FTUS46 KMFR 060200 AAA
TAFLMT
TAF AMD
KLMT 060200Z 0602/0624 34012KT P6SM SCT080 BKN250
     FM060600 VRB03KT P6SM SCT100 BKN250=



000
FTUS46 KMFR 060200 AAA
TAFLMT
TAF AMD
KLMT 060200Z 0602/0624 34012KT P6SM SCT080 BKN250
     FM060600 VRB03KT P6SM SCT100 BKN250=



000
FTUS46 KMFR 060046 AAB
TAFMFR
TAF AMD
KMFR 060046Z 0601/0624 32009KT P6SM SCT100
      TEMPO 0601/0603 16015G22KT
     FM060300 31008KT P6SM SCT100
     FM060700 VRB03KT P6SM SCT100=



000
FTUS46 KMFR 060026 AAA
TAFMFR
TAF AMD
KMFR 060026Z 0600/0624 32009KT P6SM SCT100
     FM060200 31008KT P6SM SCT100
     FM060700 VRB03KT P6SM SCT100=



000
FTUS46 KMFR 060026 AAA
TAFMFR
TAF AMD
KMFR 060026Z 0600/0624 32009KT P6SM SCT100
     FM060200 31008KT P6SM SCT100
     FM060700 VRB03KT P6SM SCT100=



000
FTUS46 KMFR 052339
TAFLMT
TAF
KLMT 052339Z 0600/0624 21009KT P6SM VCTS FEW050 SCT060 BKN080CB
     FM060300 VRB03KT P6SM SCT080 BKN250=



000
FTUS46 KMFR 052339
TAFOTH
TAF
KOTH 052339Z 0600/0624 26006KT P6SM OVC008
     FM060400 24007KT P6SM OVC004
     FM060800 VRB03KT 3SM BR OVC003
     FM061700 VRB03KT P6SM BKN010
     FM061900 25006KT P6SM SCT010 BKN100=



000
FTUS46 KMFR 052339
TAFMFR
TAF
KMFR 052339Z 0600/0624 32009G16KT P6SM SCT100
     FM060030 32010G18KT P6SM VCTS BKN080CB
     FM060200 31008KT P6SM SCT100
     FM060700 VRB03KT P6SM SCT100=



000
FTUS46 KMFR 052339
TAFRBG
TAF
KRBG 052339Z 0600/0624 34008G15KT P6SM SKC
     FM060300 VRB03KT P6SM BKN250=



000
FTUS46 KMFR 052339
TAFRBG
TAF
KRBG 052339Z 0600/0624 34008G15KT P6SM SKC
     FM060300 VRB03KT P6SM BKN250=



000
FTUS46 KMFR 052339
TAFLMT
TAF
KLMT 052339Z 0600/0624 21009KT P6SM VCTS FEW050 SCT060 BKN080CB
     FM060300 VRB03KT P6SM SCT080 BKN250=



000
FTUS46 KMFR 052339
TAFMFR
TAF
KMFR 052339Z 0600/0624 32009G16KT P6SM SCT100
     FM060030 32010G18KT P6SM VCTS BKN080CB
     FM060200 31008KT P6SM SCT100
     FM060700 VRB03KT P6SM SCT100=



000
FTUS46 KMFR 052339
TAFOTH
TAF
KOTH 052339Z 0600/0624 26006KT P6SM OVC008
     FM060400 24007KT P6SM OVC004
     FM060800 VRB03KT 3SM BR OVC003
     FM061700 VRB03KT P6SM BKN010
     FM061900 25006KT P6SM SCT010 BKN100=



000
FTUS46 KMFR 052219 AAB
TAFOTH
TAF AMD
KOTH 052219Z 0522/0618 27013KT P6SM SCT008 BKN012
     FM060300 VRB03KT P6SM OVC008
     FM060800 VRB03KT P6SM OVC005
     FM061000 VRB03KT 3SM BR OVC002=



000
FTUS46 KMFR 052219 AAB
TAFOTH
TAF AMD
KOTH 052219Z 0522/0618 27013KT P6SM SCT008 BKN012
     FM060300 VRB03KT P6SM OVC008
     FM060800 VRB03KT P6SM OVC005
     FM061000 VRB03KT 3SM BR OVC002=



000
FTUS46 KMFR 052217 AAB
TAFLMT
TAF AMD
KLMT 052217Z 0522/0618 15010KT P6SM VCTS BKN080CB BKN200
     FM060500 VRB03KT P6SM SCT080 BKN250=



000
FTUS46 KMFR 052134 AAA
TAFLMT
TAF AMD
KLMT 052134Z 0522/0618 15010KT P6SM SCT080 BKN200
     FM052230 33012KT P6SM VCTS BKN080CB BKN200
     FM060500 VRB03KT P6SM SCT080 BKN250=



000
FTUS46 KMFR 051843 AAA
TAFOTH
TAF AMD
KOTH 051843Z 0519/0618 26007KT P6SM BKN012
     FM052000 24010KT P6SM SCT015 BKN080 OVC250
     FM060300 VRB03KT P6SM OVC008
     FM060800 VRB03KT P6SM OVC005
     FM061000 VRB03KT 3SM BR OVC002=



000
FTUS46 KMFR 051720
TAFOTH
TAF
KOTH 051720Z 0518/0618 26007KT P6SM OVC005
     FM052000 24010KT P6SM SCT008 BKN080 OVC250
     FM060300 VRB03KT P6SM OVC008
     FM060800 VRB03KT P6SM OVC005
     FM061000 VRB03KT 3SM BR OVC002=



000
FTUS46 KMFR 051720
TAFMFR
TAF
KMFR 051720Z 0518/0618 VRB03KT P6SM BKN250
     FM052300 32010KT P6SM SCT080 BKN250
     FM060400 VRB03KT P6SM BKN250=



000
FTUS46 KMFR 051720
TAFLMT
TAF
KLMT 051720Z 0518/0618 16012KT P6SM SCT080 BKN200
     FM060000 33012KT P6SM VCTS BKN080CB BKN200
     FM060500 VRB03KT P6SM SCT080 BKN250=



000
FTUS46 KMFR 051720
TAFRBG
TAF
KRBG 051720Z 0518/0618 VRB03KT P6SM BKN250
     FM052200 36010KT P6SM SCT080 BKN250
     FM060300 VRB03KT P6SM BKN250=



000
FTUS46 KMFR 051619 AAB
TAFOTH
TAF AMD
KOTH 051619Z 0516/0612 VRB02KT P6SM OVC004
     FM051800 VRB03KT P6SM SCT006
     FM051900 25008KT P6SM SCT250
     FM060500 VRB03KT P6SM BKN008=



000
FTUS46 KMFR 051619 AAB
TAFOTH
TAF AMD
KOTH 051619Z 0516/0612 VRB02KT P6SM OVC004
     FM051800 VRB03KT P6SM SCT006
     FM051900 25008KT P6SM SCT250
     FM060500 VRB03KT P6SM BKN008=



000
FTUS46 KMFR 051524 AAA
TAFOTH
TAF AMD
KOTH 051524Z 0515/0612 VRB02KT 2SM BR OVC003
     FM051800 VRB03KT P6SM SCT006
     FM051900 25008KT P6SM SCT250
     FM060500 VRB03KT P6SM BKN008=



000
FTUS46 KMFR 051138
TAFRBG
TAF
KRBG 051138Z 0512/0612 01004KT P6SM BKN200=



000
FTUS46 KMFR 051138
TAFMFR
TAF
KMFR 051138Z 0512/0612 03005KT P6SM BKN250=



000
FTUS46 KMFR 051138
TAFLMT
TAF
KLMT 051138Z 0512/0612 16005KT P6SM SCT070 OVC150
     FM052200 30008KT P6SM VCTS BKN070CB BKN150
     FM060500 35004KT P6SM SCT070 BKN150=



000
FTUS46 KMFR 051138
TAFOTH
TAF
KOTH 051138Z 0512/0612 VRB02KT 1/2SM FG OVC003
      TEMPO 0512/0516 3SM BR
     FM051600 VRB03KT P6SM SCT006
     FM051800 25008KT P6SM SCT250
     FM060500 VRB03KT P6SM BKN008=



000
FTUS46 KMFR 051138
TAFLMT
TAF
KLMT 051138Z 0512/0612 16005KT P6SM SCT070 OVC150
     FM052200 30008KT P6SM VCTS BKN070CB BKN150
     FM060500 35004KT P6SM SCT070 BKN150=



000
FTUS46 KMFR 051138
TAFRBG
TAF
KRBG 051138Z 0512/0612 01004KT P6SM BKN200=



000
FTUS46 KMFR 051138
TAFOTH
TAF
KOTH 051138Z 0512/0612 VRB02KT 1/2SM FG OVC003
      TEMPO 0512/0516 3SM BR
     FM051600 VRB03KT P6SM SCT006
     FM051800 25008KT P6SM SCT250
     FM060500 VRB03KT P6SM BKN008=



000
FTUS46 KMFR 051138
TAFMFR
TAF
KMFR 051138Z 0512/0612 03005KT P6SM BKN250=



000
FTUS46 KMFR 050806 AAA
TAFOTH
TAF AMD
KOTH 050806Z 0508/0606 VRB02KT 1/2SM FG OVC002
     FM051600 VRB03KT 5SM BR SCT006
     FM051800 25008KT P6SM SCT020 BKN250=



000
FTUS46 KMFR 050539
TAFMFR
TAF
KMFR 050539Z 0506/0606 03005KT P6SM BKN250=



000
FTUS46 KMFR 050539
TAFLMT
TAF
KLMT 050539Z 0506/0606 16005KT P6SM SCT070 OVC150
     FM052200 28008KT P6SM VCTS BKN070CB BKN150=



000
FTUS46 KMFR 050539
TAFOTH
TAF
KOTH 050539Z 0506/0606 31005KT 3SM BR OVC002
      TEMPO 0506/0508 1SM BR OVC002
     FM051200 15003KT 1/2SM FG OVC001
     FM051600 VRB03KT 5SM BR SCT006
     FM051800 25008KT P6SM SCT020 BKN250=



000
FTUS46 KMFR 050539
TAFRBG
TAF
KRBG 050539Z 0506/0606 01004KT P6SM BKN200=



000
FTUS46 KMFR 050448 AAB
TAFOTH
TAF AMD
KOTH 050448Z 0505/0524 31006KT 5SM BR OVC005
     FM051000 16003KT 1SM BR OVC002
     FM051600 VRB03KT 5SM BR SCT006
     FM051800 25005KT P6SM SCT020 BKN250=



000
FTUS46 KMFR 050243 AAD
TAFLMT
TAF AMD
KLMT 050243Z 0503/0524 33014KT P6SM BKN150
     FM050500 30008KT P6SM OVC050
     FM051900 20005KT P6SM VCTS BKN070CB=



000
FTUS46 KMFR 050243 AAD
TAFLMT
TAF AMD
KLMT 050243Z 0503/0524 33014KT P6SM BKN150
     FM050500 30008KT P6SM OVC050
     FM051900 20005KT P6SM VCTS BKN070CB=



000
FTUS46 KMFR 050218 AAA
TAFOTH
TAF AMD
KOTH 050218Z 0502/0524 35005KT P6SM SCT250
     FM050500 31006KT P6SM OVC015
     FM051000 VRB03KT P6SM OVC008
     FM051300 VRB03KT P6SM OVC004
     FM051600 VRB03KT P6SM SCT006
     FM051800 25005KT P6SM SCT020 BKN250=



000
FTUS46 KMFR 050154 AAC
TAFLMT
TAF AMD
KLMT 050154Z 0502/0524 33014KT P6SM BKN150
     FM050300 30012KT P6SM VCTS BKN070CB
     FM050500 30008KT P6SM OVC050
     FM051900 20005KT P6SM VCTS BKN070CB=



000
FTUS46 KMFR 050154 AAC
TAFLMT
TAF AMD
KLMT 050154Z 0502/0524 33014KT P6SM BKN150
     FM050300 30012KT P6SM VCTS BKN070CB
     FM050500 30008KT P6SM OVC050
     FM051900 20005KT P6SM VCTS BKN070CB=



000
FTUS46 KMFR 050121 AAB
TAFLMT
TAF AMD
KLMT 050121Z 0501/0524 33014KT P6SM BKN150
     FM050200 30012KT P6SM VCTS BKN070CB
     FM050500 30008KT P6SM OVC050
     FM051900 20005KT P6SM VCTS BKN070CB=



000
FTUS46 KMFR 050121 AAB
TAFLMT
TAF AMD
KLMT 050121Z 0501/0524 33014KT P6SM BKN150
     FM050200 30012KT P6SM VCTS BKN070CB
     FM050500 30008KT P6SM OVC050
     FM051900 20005KT P6SM VCTS BKN070CB=



000
FTUS46 KMFR 050100 AAA
TAFRBG
TAF AMD
KRBG 050100Z 0501/0524 36011KT P6SM FEW150
     FM050500 VRB03KT P6SM FEW150=



000
FTUS46 KMFR 050059 AAA
TAFLMT
TAF AMD
KLMT 050059Z 0501/0524 33014KT P6SM SCT080
     FM050130 30012KT P6SM VCTS BKN070CB
     FM050500 30008KT P6SM OVC050
     FM051900 20005KT P6SM VCTS BKN070CB=



000
FTUS46 KMFR 050059 AAA
TAFLMT
TAF AMD
KLMT 050059Z 0501/0524 33014KT P6SM SCT080
     FM050130 30012KT P6SM VCTS BKN070CB
     FM050500 30008KT P6SM OVC050
     FM051900 20005KT P6SM VCTS BKN070CB=



000
FTUS46 KMFR 042343
TAFMFR
TAF
KMFR 042343Z 0500/0524 32009KT P6SM SCT100 SCT250
     FM050500 VRB03KT P6SM SCT250
     FM052300 31011KT P6SM SCT250=



000
FTUS46 KMFR 042343
TAFLMT
TAF
KLMT 042343Z 0500/0524 25008KT P6SM BKN080 BKN200
     FM050100 30012KT P6SM VCTS BKN070CB
     FM050500 30008KT P6SM OVC050
     FM051900 20005KT P6SM VCTS BKN070CB=



000
FTUS46 KMFR 042343
TAFRBG
TAF
KRBG 042343Z 0500/0524 VRB03KT P6SM FEW150=



000
FTUS46 KMFR 042343
TAFOTH
TAF
KOTH 042343Z 0500/0524 33010KT P6SM SCT250
     FM050300 31006KT P6SM OVC015
     FM051000 VRB03KT P6SM OVC008
     FM051300 VRB03KT P6SM OVC004
     FM051600 VRB03KT P6SM SCT006
     FM051800 25005KT P6SM SCT020 BKN250=



000
FTUS46 KMFR 041950 AAA
TAFOTH
TAF AMD
KOTH 041950Z 0420/0518 32008KT P6SM BKN250
     FM050300 36010KT P6SM BKN250
     FM050700 VRB03KT P6SM OVC020
     FM051000 VRB03KT P6SM OVC012
     FM051700 33008KT P6SM SCT020 SCT250=



000
FTUS46 KMFR 041735
TAFRBG
TAF
KRBG 041735Z 0418/0518 VRB03KT P6SM BKN250
     FM042100 36010KT P6SM SCT250
     FM050300 VRB03KT P6SM SCT250=



000
FTUS46 KMFR 041735
TAFMFR
TAF
KMFR 041735Z 0418/0518 VRB03KT P6SM BKN250
     FM042200 32010KT P6SM SCT100 BKN250
     FM050400 VRB03KT P6SM SCT250=



000
FTUS46 KMFR 041735
TAFLMT
TAF
KLMT 041735Z 0418/0518 VRB03KT P6SM SCT080 BKN200
     FM042300 33010KT P6SM BKN080 BKN200
     FM050500 VRB03KT P6SM SCT200=



000
FTUS46 KMFR 041735
TAFOTH
TAF
KOTH 041735Z 0418/0518 32008KT P6SM BKN250
     FM042000 35014G25KT P6SM BKN250
     FM050300 36010KT P6SM BKN250
     FM050700 VRB03KT P6SM OVC020
     FM051000 VRB03KT P6SM OVC012
     FM051700 33008KT P6SM SCT020 SCT250=



000
FTUS46 KMFR 041135
TAFMFR
TAF
KMFR 041135Z 0412/0512 VRB03KT P6SM SCT250
     FM042200 32010KT P6SM SCT100 SCT250
     FM050400 VRB03KT P6SM SCT250=



000
FTUS46 KMFR 041135
TAFLMT
TAF
KLMT 041135Z 0412/0512 VRB03KT P6SM SCT100 SCT200
     FM042300 31011KT P6SM BKN080 BKN200
     FM050500 VRB03KT P6SM SCT080 SCT200=



000
FTUS46 KMFR 041135
TAFOTH
TAF
KOTH 041135Z 0412/0512 VRB03KT P6SM OVC010
      TEMPO 0412/0416 3SM BR OVC007
     FM041700 35010KT P6SM BKN012
     FM041900 35014G22KT P6SM SCT015 SCT250
     FM050500 36010KT P6SM OVC006=



000
FTUS46 KMFR 041135
TAFRBG
TAF
KRBG 041135Z 0412/0512 VRB03KT P6SM SCT250
     FM042100 35010KT P6SM SCT250
     FM050300 VRB03KT P6SM SCT250=



000
FTUS46 KMFR 041135
TAFMFR
TAF
KMFR 041135Z 0412/0512 VRB03KT P6SM SCT250
     FM042200 32010KT P6SM SCT100 SCT250
     FM050400 VRB03KT P6SM SCT250=



000
FTUS46 KMFR 041135
TAFLMT
TAF
KLMT 041135Z 0412/0512 VRB03KT P6SM SCT100 SCT200
     FM042300 31011KT P6SM BKN080 BKN200
     FM050500 VRB03KT P6SM SCT080 SCT200=



000
FTUS46 KMFR 041135
TAFRBG
TAF
KRBG 041135Z 0412/0512 VRB03KT P6SM SCT250
     FM042100 35010KT P6SM SCT250
     FM050300 VRB03KT P6SM SCT250=



000
FTUS46 KMFR 041135
TAFOTH
TAF
KOTH 041135Z 0412/0512 VRB03KT P6SM OVC010
      TEMPO 0412/0416 3SM BR OVC007
     FM041700 35010KT P6SM BKN012
     FM041900 35014G22KT P6SM SCT015 SCT250
     FM050500 36010KT P6SM OVC006=



000
FTUS46 KMFR 040957 AAA
TAFOTH
TAF AMD
KOTH 040957Z 0410/0506 36006KT P6SM OVC012
     FM041200 VRB03KT 3SM BR OVC006
     FM041700 35010KT P6SM BKN004
     FM041900 35014G25KT P6SM SCT006 SCT250
     FM050400 36010KT P6SM OVC005=



000
FTUS46 KMFR 040957 AAA
TAFOTH
TAF AMD
KOTH 040957Z 0410/0506 36006KT P6SM OVC012
     FM041200 VRB03KT 3SM BR OVC006
     FM041700 35010KT P6SM BKN004
     FM041900 35014G25KT P6SM SCT006 SCT250
     FM050400 36010KT P6SM OVC005=



    US Dept of Commerce
    National Oceanic and Atmospheric Administration
    National Weather Service
    1325 East West Highway
    Silver Spring, MD 20910
    Page Author: NWS Internet Services Team
Disclaimer
Information Quality
Credits
Glossary
Privacy Policy
Freedom of Information Act (FOIA)
About Us
Career Opportunities